createdAt,value
2022-09-02T00:01:24.730Z,85.74
2022-09-02T00:03:56.797Z,85.80
2022-09-02T00:06:25.296Z,86.06
2022-09-02T00:08:53.492Z,86.46
2022-09-02T00:11:27.605Z,85.94
2022-09-02T00:13:57.677Z,86.10
2022-09-02T00:16:26.334Z,85.87
2022-09-02T00:18:54.516Z,85.84
2022-09-02T00:21:22.680Z,86.09
2022-09-02T00:23:50.937Z,86.37
2022-09-02T00:26:20.160Z,86.13
2022-09-02T00:28:51.213Z,86.34
2022-09-02T00:31:26.056Z,86.04
2022-09-02T00:33:54.776Z,86.27
2022-09-02T00:36:22.963Z,86.28
2022-09-02T00:38:51.691Z,86.01
2022-09-02T00:41:25.198Z,86.07
2022-09-02T00:44:00.305Z,86.28
2022-09-02T00:46:30.807Z,86.55
2022-09-02T00:49:04.217Z,86.62
2022-09-02T00:51:37.630Z,86.27
2022-09-02T00:54:07.798Z,86.03
2022-09-02T00:56:39.304Z,86.38
2022-09-02T00:59:08.761Z,86.14
2022-09-02T01:01:36.976Z,86.22
2022-09-02T01:04:06.212Z,86.52
2022-09-02T01:06:34.967Z,86.23
2022-09-02T01:09:10.128Z,86.27
2022-09-02T01:11:49.274Z,86.61
2022-09-02T01:14:17.351Z,86.97
2022-09-02T01:16:55.195Z,86.79
2022-09-02T01:19:33.014Z,86.98
2022-09-02T01:22:02.032Z,87.04
2022-09-02T01:24:32.701Z,87.02
2022-09-02T01:27:01.191Z,86.97
2022-09-02T01:29:29.713Z,86.94
2022-09-02T01:31:58.070Z,86.65
2022-09-02T01:34:26.984Z,86.39
2022-09-02T01:36:55.719Z,86.23
2022-09-02T01:39:24.343Z,86.33
2022-09-02T01:41:53.003Z,86.40
2022-09-02T01:44:22.147Z,86.29
2022-09-02T01:46:51.366Z,86.52
2022-09-02T01:49:20.653Z,86.88
2022-09-02T01:51:49.956Z,86.70
2022-09-02T01:54:18.086Z,86.56
2022-09-02T01:56:46.139Z,86.71
2022-09-02T01:59:18.593Z,86.50
2022-09-02T02:01:47.875Z,86.58
2022-09-02T02:04:17.148Z,86.68
2022-09-02T02:06:48.760Z,86.44
2022-09-02T02:09:20.482Z,86.33
2022-09-02T02:11:49.308Z,86.24
2022-09-02T02:14:18.081Z,86.33
2022-09-02T02:16:48.579Z,86.58
2022-09-02T02:19:16.677Z,86.53
2022-09-02T02:21:44.742Z,86.16
2022-09-02T02:24:12.905Z,86.31
2022-09-02T02:26:40.988Z,86.60
2022-09-02T02:29:09.538Z,86.77
2022-09-02T02:31:38.522Z,86.25
2022-09-02T02:34:06.816Z,86.28
2022-09-02T02:36:35.061Z,86.31
2022-09-02T02:39:04.662Z,86.04
2022-09-02T02:41:33.314Z,86.10
2022-09-02T02:44:01.631Z,86.24
2022-09-02T02:46:31.291Z,86.69
2022-09-02T02:49:00.540Z,86.74
2022-09-02T02:51:28.722Z,86.27
2022-09-02T02:53:59.028Z,86.45
2022-09-02T02:56:29.353Z,86.50
2022-09-02T02:59:03.355Z,86.29
2022-09-02T03:01:32.383Z,86.33
2022-09-02T03:04:01.239Z,86.55
2022-09-02T03:06:30.130Z,86.49
2022-09-02T03:08:59.811Z,86.40
2022-09-02T03:11:28.653Z,86.06
2022-09-02T03:13:57.811Z,86.15
2022-09-02T03:16:26.118Z,86.53
2022-09-02T03:18:55.094Z,86.44
2022-09-02T03:21:23.151Z,86.26
2022-09-02T03:23:51.315Z,86.30
2022-09-02T03:26:23.538Z,86.15
2022-09-02T03:28:56.776Z,86.05
2022-09-02T03:31:26.842Z,85.61
2022-09-02T03:33:55.854Z,85.83
2022-09-02T03:36:31.884Z,86.17
2022-09-02T03:39:01.199Z,86.35
2022-09-02T03:41:30.044Z,86.11
2022-09-02T03:43:59.178Z,86.40
2022-09-02T03:46:29.663Z,86.77
2022-09-02T03:48:57.954Z,86.63
2022-09-02T03:51:27.790Z,86.34
2022-09-02T03:53:56.589Z,86.55
2022-09-02T03:56:25.431Z,86.57
2022-09-02T03:58:53.833Z,86.63
2022-09-02T04:01:27.995Z,86.68
2022-09-02T04:04:04.795Z,86.55
2022-09-02T04:06:34.573Z,86.49
2022-09-02T04:09:04.442Z,87.01
2022-09-02T04:11:33.689Z,86.94
2022-09-02T04:14:01.779Z,86.88
2022-09-02T04:16:30.192Z,86.80
2022-09-02T04:19:04.309Z,87.03
2022-09-02T04:21:36.295Z,86.77
2022-09-02T04:24:06.496Z,86.88
2022-09-02T04:26:35.841Z,86.90
2022-09-02T04:29:09.463Z,87.00
2022-09-02T04:31:37.702Z,87.07
2022-09-02T04:34:07.096Z,87.06
2022-09-02T04:36:36.103Z,86.84
2022-09-02T04:39:09.437Z,86.78
2022-09-02T04:41:38.037Z,87.04
2022-09-02T04:44:09.530Z,87.03
2022-09-02T04:46:40.456Z,87.18
2022-09-02T04:49:12.052Z,87.09
2022-09-02T04:51:41.401Z,86.76
2022-09-02T04:54:10.476Z,86.94
2022-09-02T04:56:39.582Z,86.91
2022-09-02T04:59:09.312Z,86.89
2022-09-02T05:01:38.837Z,87.16
2022-09-02T05:04:11.988Z,87.23
2022-09-02T05:06:44.534Z,87.23
2022-09-02T05:09:17.364Z,87.13
2022-09-02T05:11:48.843Z,87.01
2022-09-02T05:14:17.712Z,87.16
2022-09-02T05:16:46.216Z,86.71
2022-09-02T05:19:16.839Z,87.04
2022-09-02T05:21:48.626Z,86.91
2022-09-02T05:24:26.637Z,86.98
2022-09-02T05:26:57.309Z,87.20
2022-09-02T05:29:26.856Z,87.62
2022-09-02T05:31:55.465Z,87.46
2022-09-02T05:34:24.777Z,87.37
2022-09-02T05:36:54.621Z,87.01
2022-09-02T05:39:23.111Z,87.13
2022-09-02T05:41:51.593Z,87.03
2022-09-02T05:44:20.333Z,87.12
2022-09-02T05:46:49.653Z,87.34
2022-09-02T05:49:18.648Z,87.32
2022-09-02T05:51:54.005Z,87.27
2022-09-02T05:54:28.748Z,87.26
2022-09-02T05:57:00.988Z,87.07
2022-09-02T05:59:30.749Z,87.16
2022-09-02T06:02:00.083Z,87.45
2022-09-02T06:04:29.094Z,87.36
2022-09-02T06:06:57.358Z,87.14
2022-09-02T06:09:25.541Z,87.63
2022-09-02T06:11:55.017Z,87.65
2022-09-02T06:14:27.053Z,87.34
2022-09-02T06:16:57.689Z,87.27
2022-09-02T06:19:30.797Z,87.52
2022-09-02T06:22:01.111Z,87.69
2022-09-02T06:24:31.076Z,87.90
2022-09-02T06:27:02.127Z,88.16
2022-09-02T06:29:30.429Z,87.95
2022-09-02T06:31:59.057Z,88.10
2022-09-02T06:34:27.721Z,87.84
2022-09-02T06:36:57.993Z,87.80
2022-09-02T06:39:26.440Z,88.05
2022-09-02T06:41:56.128Z,87.99
2022-09-02T06:44:25.309Z,88.04
2022-09-02T06:46:56.641Z,87.72
2022-09-02T06:49:26.791Z,87.98
2022-09-02T06:51:56.920Z,88.11
2022-09-02T06:54:29.434Z,88.10
2022-09-02T06:57:06.647Z,88.44
2022-09-02T06:59:36.879Z,88.69
2022-09-02T07:02:05.234Z,88.16
2022-09-02T07:04:54.365Z,88.16
2022-09-02T07:07:26.282Z,88.49
2022-09-02T07:09:59.082Z,88.57
2022-09-02T07:12:27.558Z,88.49
2022-09-02T07:14:59.778Z,88.63
2022-09-02T07:17:38.355Z,88.83
2022-09-02T07:20:10.721Z,88.94
2022-09-02T07:25:23.174Z,88.52
2022-09-02T07:27:52.472Z,88.46
2022-09-02T07:30:21.002Z,88.64
2022-09-02T07:32:53.099Z,88.49
2022-09-02T07:35:22.874Z,88.58
2022-09-02T07:37:52.086Z,88.60
2022-09-02T07:40:21.125Z,88.85
2022-09-02T07:42:50.526Z,88.83
2022-09-02T07:45:19.646Z,88.53
2022-09-02T07:47:49.684Z,88.07
2022-09-02T07:50:21.060Z,87.73
2022-09-02T07:52:58.449Z,87.47
2022-09-02T07:55:31.048Z,87.35
2022-09-02T07:57:59.518Z,86.79
2022-09-02T08:00:27.962Z,86.91
2022-09-02T08:03:00.766Z,86.67
2022-09-02T08:05:33.792Z,86.82
2022-09-02T08:08:03.458Z,86.92
2022-09-02T08:10:32.264Z,87.24
2022-09-02T08:13:01.141Z,87.04
2022-09-02T08:15:30.490Z,86.89
2022-09-02T08:18:00.467Z,86.88
2022-09-02T08:20:30.722Z,86.73
2022-09-02T08:23:11.621Z,86.95
2022-09-02T08:25:46.570Z,86.76
2022-09-02T08:28:15.396Z,86.72
2022-09-02T08:30:43.456Z,86.77
2022-09-02T08:33:11.570Z,86.97
2022-09-02T08:35:40.509Z,87.37
2022-09-02T08:38:08.549Z,87.15
2022-09-02T08:40:41.319Z,87.35
2022-09-02T08:43:22.113Z,87.34
2022-09-02T08:45:51.968Z,87.48
2022-09-02T08:48:32.503Z,87.43
2022-09-02T08:51:11.169Z,87.32
2022-09-02T08:53:52.856Z,87.57
2022-09-02T08:56:20.953Z,87.17
2022-09-02T08:58:56.258Z,87.10
2022-09-02T09:01:41.228Z,86.86
2022-09-02T09:04:18.676Z,87.12
2022-09-02T09:07:02.006Z,86.75
2022-09-02T09:09:57.337Z,86.61
2022-09-02T09:12:25.327Z,86.56
2022-09-02T09:15:33.037Z,86.79
2022-09-02T09:18:05.394Z,86.70
2022-09-02T09:20:39.009Z,86.63
2022-09-02T09:23:24.361Z,86.43
2022-09-02T09:25:58.052Z,86.46
2022-09-02T09:28:26.076Z,86.45
2022-09-02T09:30:54.530Z,86.71
2022-09-02T09:33:23.625Z,86.48
2022-09-02T09:35:54.651Z,86.74
2022-09-02T09:38:34.906Z,86.55
2022-09-02T09:41:15.059Z,86.71
2022-09-02T09:43:43.826Z,86.71
2022-09-02T09:46:41.020Z,86.81
2022-09-02T09:49:09.172Z,86.79
2022-09-02T09:51:55.111Z,86.93
2022-09-02T09:54:26.979Z,87.17
2022-09-02T09:56:56.499Z,87.35
2022-09-02T09:59:40.883Z,87.19
2022-09-02T10:02:22.522Z,87.24
2022-09-02T10:04:54.136Z,87.28
2022-09-02T10:07:37.044Z,87.24
2022-09-02T10:10:17.074Z,87.28
2022-09-02T10:12:47.467Z,87.29
2022-09-02T10:15:24.795Z,87.38
2022-09-02T10:18:28.513Z,87.30
2022-09-02T10:21:15.107Z,86.80
2022-09-02T10:23:51.476Z,86.72
2022-09-02T10:26:22.424Z,86.61
2022-09-02T10:29:30.675Z,86.14
2022-09-02T10:32:32.908Z,86.36
2022-09-02T10:35:19.802Z,86.32
2022-09-02T10:38:29.597Z,86.38
2022-09-02T10:41:20.736Z,86.30
2022-09-02T10:43:57.199Z,86.36
2022-09-02T10:46:27.114Z,86.44
2022-09-02T10:49:10.705Z,86.60
2022-09-02T10:51:56.977Z,86.84
2022-09-02T10:54:42.988Z,87.01
2022-09-02T10:57:23.561Z,86.76
2022-09-02T11:00:00.251Z,86.63
2022-09-02T11:02:35.524Z,86.63
2022-09-02T11:05:13.419Z,86.64
2022-09-02T11:08:11.080Z,86.67
2022-09-02T11:10:45.605Z,86.62
2022-09-02T11:13:21.494Z,86.67
2022-09-02T11:16:05.800Z,86.60
2022-09-02T11:18:45.174Z,86.86
2022-09-02T11:21:24.838Z,86.82
2022-09-02T11:24:16.645Z,86.95
2022-09-02T11:26:53.891Z,87.04
2022-09-02T11:29:33.247Z,87.00
2022-09-02T11:32:29.615Z,87.10
2022-09-02T11:34:59.949Z,87.11
2022-09-02T11:37:44.419Z,87.30
2022-09-02T11:40:34.902Z,87.32
2022-09-02T11:43:22.915Z,87.32
2022-09-02T11:46:16.272Z,87.28
2022-09-02T11:49:00.437Z,87.56
2022-09-02T11:51:49.723Z,87.44
2022-09-02T11:54:22.032Z,87.22
2022-09-02T11:56:57.177Z,87.21
2022-09-02T11:59:51.099Z,87.07
2022-09-02T12:02:31.309Z,86.72
2022-09-02T12:05:31.608Z,86.61
2022-09-02T12:08:05.658Z,86.72
2022-09-02T12:10:43.649Z,86.82
2022-09-02T12:13:31.921Z,87.02
2022-09-02T12:16:12.782Z,87.05
2022-09-02T12:18:45.130Z,86.88
2022-09-02T12:21:16.875Z,87.07
2022-09-02T12:23:51.272Z,86.75
2022-09-02T12:26:23.576Z,87.11
2022-09-02T12:29:11.026Z,86.91
2022-09-02T12:31:44.751Z,86.95
2022-09-02T12:34:21.619Z,86.99
2022-09-02T12:36:52.305Z,86.89
2022-09-02T12:39:23.276Z,86.74
2022-09-02T12:41:57.043Z,86.75
2022-09-02T12:44:25.005Z,86.79
2022-09-02T12:47:03.304Z,86.19
2022-09-02T12:49:48.741Z,86.16
2022-09-02T12:52:36.153Z,85.93
2022-09-02T12:55:10.886Z,85.85
2022-09-02T12:57:42.023Z,85.83
2022-09-02T13:00:37.716Z,85.81
2022-09-02T13:03:33.600Z,85.82
2022-09-02T13:06:12.084Z,85.86
2022-09-02T13:09:17.596Z,86.06
2022-09-02T13:12:02.119Z,86.23
2022-09-02T13:14:30.071Z,86.59
2022-09-02T13:17:37.183Z,86.52
2022-09-02T13:20:14.912Z,86.51
2022-09-02T13:23:14.335Z,86.49
2022-09-02T13:26:07.305Z,86.17
2022-09-02T13:28:47.257Z,86.00
2022-09-02T13:31:23.772Z,86.10
2022-09-02T13:34:13.241Z,86.67
2022-09-02T13:36:44.713Z,86.41
2022-09-02T13:39:32.971Z,86.50
2022-09-02T13:42:15.088Z,86.56
2022-09-02T13:44:47.323Z,86.56
2022-09-02T13:47:20.736Z,86.24
2022-09-02T13:49:52.207Z,86.49
2022-09-02T13:53:00.999Z,86.63
2022-09-02T13:55:15.778Z,86.58
2022-09-02T13:57:50.651Z,86.57
2022-09-02T14:00:41.373Z,86.17
2022-09-02T14:03:15.223Z,86.30
2022-09-02T14:05:50.624Z,86.40
2022-09-02T14:08:23.716Z,86.22
2022-09-02T14:10:53.975Z,86.51
2022-09-02T14:13:23.385Z,86.59
2022-09-02T14:15:51.626Z,86.78
2022-09-02T14:18:22.572Z,86.70
2022-09-02T14:20:56.586Z,86.51
2022-09-02T14:23:27.284Z,86.53
2022-09-02T14:25:58.588Z,86.36
2022-09-02T14:28:30.012Z,86.20
2022-09-02T14:31:09.743Z,86.34
2022-09-02T14:33:44.891Z,86.11
2022-09-02T14:36:30.018Z,86.10
2022-09-02T14:39:13.472Z,85.96
2022-09-02T14:41:59.808Z,86.20
2022-09-02T14:44:34.780Z,85.79
2022-09-02T14:47:13.198Z,85.87
2022-09-02T14:49:55.591Z,85.83
2022-09-02T14:52:36.499Z,85.93
2022-09-02T14:55:08.725Z,86.01
2022-09-02T14:57:39.175Z,86.02
2022-09-02T15:00:11.316Z,85.76
2022-09-02T15:02:42.898Z,85.64
2022-09-02T15:05:16.770Z,85.70
2022-09-02T15:07:46.789Z,85.65
2022-09-02T15:10:14.922Z,85.88
2022-09-02T15:12:49.854Z,86.02
2022-09-02T15:15:18.532Z,86.04
2022-09-02T15:17:46.558Z,86.15
2022-09-02T15:20:15.741Z,86.16
2022-09-02T15:22:43.802Z,86.21
2022-09-02T15:25:11.907Z,86.29
2022-09-02T15:27:40.936Z,86.26
2022-09-02T15:30:10.185Z,86.36
2022-09-02T15:32:38.590Z,86.24
2022-09-02T15:35:08.504Z,85.93
2022-09-02T15:37:38.247Z,86.27
2022-09-02T15:40:08.269Z,86.13
2022-09-02T15:42:38.027Z,86.24
2022-09-02T15:45:09.126Z,86.03
2022-09-02T15:47:38.504Z,86.01
2022-09-02T15:50:07.445Z,86.09
2022-09-02T15:52:36.813Z,86.18
2022-09-02T15:55:05.181Z,86.23
2022-09-02T15:57:33.450Z,86.56
2022-09-02T16:00:01.570Z,86.48
2022-09-02T16:02:39.857Z,86.41
2022-09-02T16:05:12.375Z,86.80
2022-09-02T16:07:40.546Z,87.20
2022-09-02T16:10:09.648Z,87.01
2022-09-02T16:12:37.673Z,87.19
2022-09-02T16:15:06.487Z,87.17
2022-09-02T16:17:34.492Z,86.95
2022-09-02T16:20:04.145Z,86.97
2022-09-02T16:22:32.232Z,87.13
2022-09-02T16:25:00.811Z,87.15
2022-09-02T16:27:47.521Z,87.03
2022-09-02T16:30:16.440Z,87.17
2022-09-02T16:32:46.668Z,87.44
2022-09-02T16:35:14.787Z,87.60
2022-09-02T16:37:43.109Z,87.50
2022-09-02T16:40:12.229Z,87.26
2022-09-02T16:42:40.281Z,87.02
2022-09-02T16:45:09.354Z,87.26
2022-09-02T16:47:37.334Z,87.17
2022-09-02T16:50:05.612Z,87.01
2022-09-02T16:52:35.317Z,86.73
2022-09-02T16:55:03.385Z,86.99
2022-09-02T16:57:31.327Z,86.76
2022-09-02T16:59:59.636Z,86.88
2022-09-02T17:02:30.264Z,86.82
2022-09-02T17:04:58.582Z,86.78
2022-09-02T17:07:26.525Z,86.89
2022-09-02T17:09:54.526Z,86.92
2022-09-02T17:12:22.593Z,86.75
2022-09-02T17:14:50.694Z,86.74
2022-09-02T17:17:18.779Z,87.02
2022-09-02T17:19:46.741Z,87.19
2022-09-02T17:22:14.709Z,87.04
2022-09-02T17:24:42.838Z,86.99
2022-09-02T17:27:10.904Z,87.07
2022-09-02T17:29:55.423Z,86.70
2022-09-02T17:32:23.567Z,86.75
2022-09-02T17:34:51.536Z,86.60
2022-09-02T17:37:21.449Z,86.56
2022-09-02T17:39:50.247Z,86.41
2022-09-02T17:42:19.136Z,86.43
2022-09-02T17:44:48.855Z,86.60
2022-09-02T17:47:20.710Z,86.44
2022-09-02T17:49:49.739Z,86.49
2022-09-02T17:52:21.436Z,86.71
2022-09-02T17:54:52.334Z,86.87
2022-09-02T17:57:26.445Z,86.90
2022-09-02T18:00:10.033Z,86.82
2022-09-02T18:02:59.730Z,86.87
2022-09-02T18:05:38.689Z,87.13
2022-09-02T18:08:15.694Z,87.30
2022-09-02T18:10:57.573Z,87.44
2022-09-02T18:13:41.568Z,87.35
2022-09-02T18:16:36.796Z,87.35
2022-09-02T18:19:13.954Z,87.70
2022-09-02T18:21:47.683Z,87.80
2022-09-02T18:24:35.382Z,87.50
2022-09-02T18:27:48.107Z,87.67
2022-09-02T18:30:33.777Z,87.89
2022-09-02T18:33:04.703Z,87.90
2022-09-02T18:36:06.820Z,87.64
2022-09-02T18:39:18.664Z,87.95
2022-09-02T18:42:09.482Z,88.07
2022-09-02T18:44:56.424Z,88.20
2022-09-02T18:47:32.720Z,88.05
2022-09-02T18:50:05.979Z,87.81
2022-09-02T18:52:36.626Z,88.14
2022-09-02T18:55:14.038Z,88.11
2022-09-02T18:57:53.455Z,87.62
2022-09-02T19:00:22.961Z,87.81
2022-09-02T19:03:03.802Z,87.72
2022-09-02T19:05:35.640Z,87.85
2022-09-02T19:08:28.775Z,87.61
2022-09-02T19:11:04.094Z,87.91
2022-09-02T19:13:46.873Z,87.49
2022-09-02T19:16:27.028Z,87.92
2022-09-02T19:18:55.389Z,87.76
2022-09-02T19:21:47.359Z,87.65
2022-09-02T19:24:26.573Z,88.02
2022-09-02T19:27:03.649Z,87.87
2022-09-02T19:29:38.606Z,88.06
2022-09-02T19:32:07.237Z,87.94
2022-09-02T19:34:39.115Z,88.00
2022-09-02T19:37:08.271Z,87.66
2022-09-02T19:39:36.471Z,87.94
2022-09-02T19:42:05.422Z,87.87
2022-09-02T19:44:33.580Z,87.97
2022-09-02T19:47:49.708Z,88.12
2022-09-02T19:49:52.239Z,88.04
2022-09-02T19:52:21.063Z,87.72
2022-09-02T19:54:49.470Z,87.99
2022-09-02T19:57:17.584Z,88.25
2022-09-02T19:59:45.743Z,88.07
2022-09-02T20:02:15.039Z,88.37
2022-09-02T20:04:43.228Z,88.40
2022-09-02T20:07:11.520Z,88.05
2022-09-02T20:09:39.625Z,88.23
2022-09-02T20:12:09.508Z,88.43
2022-09-02T20:14:38.233Z,88.48
2022-09-02T20:17:13.465Z,88.37
2022-09-02T20:19:43.559Z,88.61
2022-09-02T20:22:14.533Z,88.22
2022-09-02T20:24:43.175Z,88.07
2022-09-02T20:27:47.488Z,88.22
2022-09-02T20:30:17.898Z,88.49
2022-09-02T20:33:13.020Z,88.48
2022-09-02T20:36:16.323Z,88.32
2022-09-02T20:38:52.284Z,88.36
2022-09-02T20:41:42.457Z,88.35
2022-09-02T20:44:30.021Z,88.65
2022-09-02T20:47:10.706Z,88.66
2022-09-02T20:50:02.930Z,88.60
2022-09-02T20:52:51.968Z,88.61
2022-09-02T20:55:38.040Z,88.68
2022-09-02T20:58:18.700Z,88.55
2022-09-02T21:01:02.334Z,88.68
2022-09-02T21:03:44.287Z,88.59
2022-09-02T21:06:15.193Z,88.73
2022-09-02T21:08:57.167Z,88.30
2022-09-02T21:11:29.650Z,87.93
2022-09-02T21:14:17.703Z,88.01
2022-09-02T21:17:00.151Z,88.03
2022-09-02T21:19:31.382Z,88.03
2022-09-02T21:22:06.967Z,87.60
2022-09-02T21:24:55.860Z,87.66
2022-09-02T21:27:50.913Z,87.73
2022-09-02T21:30:22.900Z,87.97
2022-09-02T21:33:03.532Z,88.00
2022-09-02T21:35:50.767Z,88.07
2022-09-02T21:38:37.703Z,88.25
2022-09-02T21:41:32.930Z,87.79
2022-09-02T21:44:04.346Z,87.54
2022-09-02T21:46:35.057Z,88.02
2022-09-02T21:49:21.576Z,87.66
2022-09-02T21:52:16.062Z,87.90
2022-09-02T21:55:17.884Z,88.13
2022-09-02T21:58:13.795Z,87.88
2022-09-02T22:00:52.238Z,87.93
2022-09-02T22:03:40.235Z,88.01
2022-09-02T22:06:24.519Z,88.07
2022-09-02T22:09:08.876Z,87.79
2022-09-02T22:11:42.359Z,87.84
2022-09-02T22:14:16.601Z,87.91
2022-09-02T22:16:51.144Z,87.98
2022-09-02T22:19:20.654Z,87.57
2022-09-02T22:21:53.536Z,87.63
2022-09-02T22:24:29.047Z,87.82
2022-09-02T22:27:09.705Z,87.95
2022-09-02T22:29:49.918Z,87.95
2022-09-02T22:32:22.033Z,88.03
2022-09-02T22:34:59.932Z,88.01
2022-09-02T22:37:40.496Z,88.07
2022-09-02T22:40:13.466Z,87.98
2022-09-02T22:42:47.093Z,88.02
2022-09-02T22:45:48.026Z,87.86
2022-09-02T22:48:45.978Z,87.65
2022-09-02T22:51:37.805Z,87.40
2022-09-02T22:54:05.924Z,87.46
2022-09-02T22:56:42.709Z,87.31
2022-09-02T22:59:29.529Z,87.48
2022-09-02T23:02:05.967Z,87.65
2022-09-02T23:04:57.914Z,87.57
2022-09-02T23:07:25.949Z,87.58
2022-09-02T23:09:59.105Z,87.58
2022-09-02T23:13:00.524Z,87.59
2022-09-02T23:15:48.097Z,87.63
2022-09-02T23:18:34.245Z,87.64
2022-09-02T23:21:08.084Z,87.53
2022-09-02T23:23:39.354Z,87.68
2022-09-02T23:26:20.123Z,87.69
2022-09-02T23:29:16.138Z,87.75
2022-09-02T23:32:05.910Z,87.96
2022-09-02T23:34:58.670Z,87.87
2022-09-02T23:37:33.482Z,87.62
2022-09-02T23:40:27.803Z,87.70
2022-09-02T23:42:59.519Z,87.81
2022-09-02T23:45:30.015Z,87.85
2022-09-02T23:48:19.651Z,87.73
2022-09-02T23:51:01.199Z,87.53
2022-09-02T23:53:55.352Z,87.63
2022-09-02T23:56:41.888Z,87.97
2022-09-02T23:59:19.062Z,87.91
